sensor_id;sensor_type;location;lat;lon;timestamp;pressure;altitude;pressure_sealevel;temperature
9119;BMP180;4594;50.994;7.126;2024-02-04T00:02:20;101456.00;;;15.90
9119;BMP180;4594;50.994;7.126;2024-02-04T00:04:48;101440.00;;;16.00
9119;BMP180;4594;50.994;7.126;2024-02-04T00:07:13;101448.00;;;16.00
9119;BMP180;4594;50.994;7.126;2024-02-04T00:09:39;101446.00;;;16.00
9119;BMP180;4594;50.994;7.126;2024-02-04T00:12:05;101444.00;;;15.90
9119;BMP180;4594;50.994;7.126;2024-02-04T00:14:32;101446.00;;;15.90
9119;BMP180;4594;50.994;7.126;2024-02-04T00:16:57;101447.00;;;15.90
9119;BMP180;4594;50.994;7.126;2024-02-04T00:19:24;101449.00;;;15.90
9119;BMP180;4594;50.994;7.126;2024-02-04T00:21:50;101442.00;;;15.90
9119;BMP180;4594;50.994;7.126;2024-02-04T00:24:15;101441.00;;;15.90
9119;BMP180;4594;50.994;7.126;2024-02-04T00:26:41;101434.00;;;15.90
9119;BMP180;4594;50.994;7.126;2024-02-04T00:29:06;101421.00;;;15.80
9119;BMP180;4594;50.994;7.126;2024-02-04T00:31:32;101431.00;;;15.80
9119;BMP180;4594;50.994;7.126;2024-02-04T00:33:58;101430.00;;;15.80
9119;BMP180;4594;50.994;7.126;2024-02-04T00:36:23;101438.00;;;15.80
9119;BMP180;4594;50.994;7.126;2024-02-04T00:38:49;101430.00;;;15.80
9119;BMP180;4594;50.994;7.126;2024-02-04T00:41:15;101434.00;;;15.80
9119;BMP180;4594;50.994;7.126;2024-02-04T00:43:40;101434.00;;;15.80
9119;BMP180;4594;50.994;7.126;2024-02-04T00:46:06;101429.00;;;15.80
9119;BMP180;4594;50.994;7.126;2024-02-04T00:48:33;101425.00;;;15.80
9119;BMP180;4594;50.994;7.126;2024-02-04T00:50:58;101434.00;;;15.80
9119;BMP180;4594;50.994;7.126;2024-02-04T00:53:24;101429.00;;;15.80
9119;BMP180;4594;50.994;7.126;2024-02-04T00:55:52;101431.00;;;15.80
9119;BMP180;4594;50.994;7.126;2024-02-04T00:58:18;101425.00;;;15.80
9119;BMP180;4594;50.994;7.126;2024-02-04T01:00:43;101424.00;;;15.80
9119;BMP180;4594;50.994;7.126;2024-02-04T01:03:09;101418.00;;;15.80
9119;BMP180;4594;50.994;7.126;2024-02-04T01:05:35;101413.00;;;15.80
9119;BMP180;4594;50.994;7.126;2024-02-04T01:08:01;101427.00;;;15.80
9119;BMP180;4594;50.994;7.126;2024-02-04T01:10:26;101418.00;;;15.80
9119;BMP180;4594;50.994;7.126;2024-02-04T01:12:52;101419.00;;;15.70
9119;BMP180;4594;50.994;7.126;2024-02-04T01:15:18;101418.00;;;15.70
9119;BMP180;4594;50.994;7.126;2024-02-04T01:17:43;101427.00;;;15.70
9119;BMP180;4594;50.994;7.126;2024-02-04T01:20:09;101420.00;;;15.70
9119;BMP180;4594;50.994;7.126;2024-02-04T01:22:35;101428.00;;;15.70
9119;BMP180;4594;50.994;7.126;2024-02-04T01:25:01;101431.00;;;15.70
9119;BMP180;4594;50.994;7.126;2024-02-04T01:27:26;101424.00;;;15.70
9119;BMP180;4594;50.994;7.126;2024-02-04T01:29:52;101422.00;;;15.70
9119;BMP180;4594;50.994;7.126;2024-02-04T01:32:18;101431.00;;;15.70
9119;BMP180;4594;50.994;7.126;2024-02-04T01:34:44;101419.00;;;15.70
9119;BMP180;4594;50.994;7.126;2024-02-04T01:37:11;101432.00;;;15.70
9119;BMP180;4594;50.994;7.126;2024-02-04T01:39:36;101422.00;;;15.60
9119;BMP180;4594;50.994;7.126;2024-02-04T01:42:02;101425.00;;;15.60
9119;BMP180;4594;50.994;7.126;2024-02-04T01:44:28;101417.00;;;15.60
9119;BMP180;4594;50.994;7.126;2024-02-04T01:46:54;101421.00;;;15.60
9119;BMP180;4594;50.994;7.126;2024-02-04T01:49:20;101421.00;;;15.60
9119;BMP180;4594;50.994;7.126;2024-02-04T01:51:46;101422.00;;;15.60
9119;BMP180;4594;50.994;7.126;2024-02-04T01:54:12;101424.00;;;15.60
9119;BMP180;4594;50.994;7.126;2024-02-04T01:56:37;101419.00;;;15.60
9119;BMP180;4594;50.994;7.126;2024-02-04T01:59:03;101412.00;;;15.60
9119;BMP180;4594;50.994;7.126;2024-02-04T02:01:29;101414.00;;;15.60
9119;BMP180;4594;50.994;7.126;2024-02-04T02:03:55;101405.00;;;15.60
9119;BMP180;4594;50.994;7.126;2024-02-04T02:06:21;101408.00;;;15.60
9119;BMP180;4594;50.994;7.126;2024-02-04T02:08:48;101406.00;;;15.60
9119;BMP180;4594;50.994;7.126;2024-02-04T02:11:37;101410.00;;;15.60
9119;BMP180;4594;50.994;7.126;2024-02-04T02:14:10;101400.00;;;15.60
9119;BMP180;4594;50.994;7.126;2024-02-04T02:16:38;101397.00;;;15.60
9119;BMP180;4594;50.994;7.126;2024-02-04T02:22:03;101398.00;;;15.60
9119;BMP180;4594;50.994;7.126;2024-02-04T02:24:39;101394.00;;;15.60
9119;BMP180;4594;50.994;7.126;2024-02-04T02:27:05;101398.00;;;15.60
9119;BMP180;4594;50.994;7.126;2024-02-04T02:29:32;101398.00;;;15.60
9119;BMP180;4594;50.994;7.126;2024-02-04T02:32:02;101388.00;;;15.60
9119;BMP180;4594;50.994;7.126;2024-02-04T02:34:31;101387.00;;;15.60
9119;BMP180;4594;50.994;7.126;2024-02-04T02:37:20;101385.00;;;15.60
9119;BMP180;4594;50.994;7.126;2024-02-04T02:42:29;101390.00;;;15.60
9119;BMP180;4594;50.994;7.126;2024-02-04T02:44:56;101391.00;;;15.60
9119;BMP180;4594;50.994;7.126;2024-02-04T02:47:23;101376.00;;;15.60
9119;BMP180;4594;50.994;7.126;2024-02-04T02:49:53;101389.00;;;15.60
9119;BMP180;4594;50.994;7.126;2024-02-04T02:52:21;101370.00;;;15.60
9119;BMP180;4594;50.994;7.126;2024-02-04T02:54:46;101378.00;;;15.60
9119;BMP180;4594;50.994;7.126;2024-02-04T02:57:12;101372.00;;;15.60
9119;BMP180;4594;50.994;7.126;2024-02-04T02:59:38;101386.00;;;15.60
9119;BMP180;4594;50.994;7.126;2024-02-04T03:02:03;101381.00;;;15.60
9119;BMP180;4594;50.994;7.126;2024-02-04T03:04:29;101386.00;;;15.60
9119;BMP180;4594;50.994;7.126;2024-02-04T03:06:55;101381.00;;;15.60
9119;BMP180;4594;50.994;7.126;2024-02-04T03:09:20;101388.00;;;15.60
9119;BMP180;4594;50.994;7.126;2024-02-04T03:11:46;101383.00;;;15.60
9119;BMP180;4594;50.994;7.126;2024-02-04T03:14:15;101381.00;;;15.60
9119;BMP180;4594;50.994;7.126;2024-02-04T03:16:44;101383.00;;;15.60
9119;BMP180;4594;50.994;7.126;2024-02-04T03:19:10;101380.00;;;15.60
9119;BMP180;4594;50.994;7.126;2024-02-04T03:21:36;101377.00;;;15.60
9119;BMP180;4594;50.994;7.126;2024-02-04T03:24:01;101374.00;;;15.60
9119;BMP180;4594;50.994;7.126;2024-02-04T03:26:27;101371.00;;;15.60
9119;BMP180;4594;50.994;7.126;2024-02-04T03:28:53;101370.00;;;15.60
9119;BMP180;4594;50.994;7.126;2024-02-04T03:31:23;101371.00;;;15.60
9119;BMP180;4594;50.994;7.126;2024-02-04T03:33:49;101376.00;;;15.70
9119;BMP180;4594;50.994;7.126;2024-02-04T03:36:22;101380.00;;;15.70
9119;BMP180;4594;50.994;7.126;2024-02-04T03:38:51;101370.00;;;15.70
9119;BMP180;4594;50.994;7.126;2024-02-04T03:41:17;101377.00;;;15.70
9119;BMP180;4594;50.994;7.126;2024-02-04T03:43:43;101371.00;;;15.70
9119;BMP180;4594;50.994;7.126;2024-02-04T03:46:16;101367.00;;;15.70
9119;BMP180;4594;50.994;7.126;2024-02-04T03:48:43;101369.00;;;15.70
9119;BMP180;4594;50.994;7.126;2024-02-04T03:51:08;101372.00;;;15.70
9119;BMP180;4594;50.994;7.126;2024-02-04T03:53:39;101384.00;;;15.70
9119;BMP180;4594;50.994;7.126;2024-02-04T03:56:05;101371.00;;;15.70
9119;BMP180;4594;50.994;7.126;2024-02-04T03:58:33;101362.00;;;15.70
9119;BMP180;4594;50.994;7.126;2024-02-04T04:00:58;101356.00;;;15.70
9119;BMP180;4594;50.994;7.126;2024-02-04T04:03:25;101359.00;;;15.70
9119;BMP180;4594;50.994;7.126;2024-02-04T04:05:53;101363.00;;;15.70
9119;BMP180;4594;50.994;7.126;2024-02-04T04:08:19;101367.00;;;15.70
9119;BMP180;4594;50.994;7.126;2024-02-04T04:10:46;101369.00;;;15.70
9119;BMP180;4594;50.994;7.126;2024-02-04T04:13:12;101360.00;;;15.70
9119;BMP180;4594;50.994;7.126;2024-02-04T04:15:39;101372.00;;;15.70
9119;BMP180;4594;50.994;7.126;2024-02-04T04:18:05;101376.00;;;15.70
9119;BMP180;4594;50.994;7.126;2024-02-04T04:20:31;101371.00;;;15.70
9119;BMP180;4594;50.994;7.126;2024-02-04T04:22:56;101372.00;;;15.70
9119;BMP180;4594;50.994;7.126;2024-02-04T04:25:22;101376.00;;;15.70
9119;BMP180;4594;50.994;7.126;2024-02-04T04:27:48;101375.00;;;15.80
9119;BMP180;4594;50.994;7.126;2024-02-04T04:30:13;101375.00;;;15.70
9119;BMP180;4594;50.994;7.126;2024-02-04T04:32:39;101369.00;;;15.80
9119;BMP180;4594;50.994;7.126;2024-02-04T04:35:05;101383.00;;;15.80
9119;BMP180;4594;50.994;7.126;2024-02-04T04:37:31;101379.00;;;15.80
9119;BMP180;4594;50.994;7.126;2024-02-04T04:39:56;101373.00;;;15.80
9119;BMP180;4594;50.994;7.126;2024-02-04T04:42:22;101370.00;;;15.80
9119;BMP180;4594;50.994;7.126;2024-02-04T04:44:48;101381.00;;;15.80
9119;BMP180;4594;50.994;7.126;2024-02-04T04:47:15;101390.00;;;15.80
9119;BMP180;4594;50.994;7.126;2024-02-04T04:49:40;101404.00;;;15.80
9119;BMP180;4594;50.994;7.126;2024-02-04T04:52:07;101415.00;;;15.80
9119;BMP180;4594;50.994;7.126;2024-02-04T04:54:32;101404.00;;;15.80
9119;BMP180;4594;50.994;7.126;2024-02-04T04:56:58;101411.00;;;15.80
9119;BMP180;4594;50.994;7.126;2024-02-04T04:59:24;101408.00;;;15.80
9119;BMP180;4594;50.994;7.126;2024-02-04T05:01:49;101409.00;;;15.80
9119;BMP180;4594;50.994;7.126;2024-02-04T05:04:17;101390.00;;;15.80
9119;BMP180;4594;50.994;7.126;2024-02-04T05:06:44;101392.00;;;15.80
9119;BMP180;4594;50.994;7.126;2024-02-04T05:09:10;101395.00;;;15.80
9119;BMP180;4594;50.994;7.126;2024-02-04T05:11:35;101393.00;;;15.80
9119;BMP180;4594;50.994;7.126;2024-02-04T05:14:01;101383.00;;;15.80
9119;BMP180;4594;50.994;7.126;2024-02-04T05:16:27;101364.00;;;15.80
9119;BMP180;4594;50.994;7.126;2024-02-04T05:18:52;101386.00;;;15.80
9119;BMP180;4594;50.994;7.126;2024-02-04T05:21:18;101383.00;;;15.80
9119;BMP180;4594;50.994;7.126;2024-02-04T05:23:44;101385.00;;;15.80
9119;BMP180;4594;50.994;7.126;2024-02-04T05:26:10;101375.00;;;15.80
9119;BMP180;4594;50.994;7.126;2024-02-04T05:28:36;101378.00;;;15.80
9119;BMP180;4594;50.994;7.126;2024-02-04T05:31:02;101379.00;;;15.80
9119;BMP180;4594;50.994;7.126;2024-02-04T05:33:28;101383.00;;;15.80
9119;BMP180;4594;50.994;7.126;2024-02-04T05:35:54;101384.00;;;15.80
9119;BMP180;4594;50.994;7.126;2024-02-04T05:38:21;101376.00;;;15.80
9119;BMP180;4594;50.994;7.126;2024-02-04T05:40:46;101363.00;;;15.80
9119;BMP180;4594;50.994;7.126;2024-02-04T05:43:12;101366.00;;;15.80
9119;BMP180;4594;50.994;7.126;2024-02-04T05:45:38;101371.00;;;15.80
9119;BMP180;4594;50.994;7.126;2024-02-04T05:48:07;101371.00;;;15.80
9119;BMP180;4594;50.994;7.126;2024-02-04T05:50:33;101371.00;;;15.80
9119;BMP180;4594;50.994;7.126;2024-02-04T05:52:59;101375.00;;;15.80
9119;BMP180;4594;50.994;7.126;2024-02-04T05:55:24;101369.00;;;15.80
9119;BMP180;4594;50.994;7.126;2024-02-04T05:57:50;101365.00;;;15.80
9119;BMP180;4594;50.994;7.126;2024-02-04T06:00:16;101359.00;;;15.80
9119;BMP180;4594;50.994;7.126;2024-02-04T06:02:42;101361.00;;;15.80
9119;BMP180;4594;50.994;7.126;2024-02-04T06:05:14;101359.00;;;15.80
9119;BMP180;4594;50.994;7.126;2024-02-04T06:07:42;101350.00;;;15.80
9119;BMP180;4594;50.994;7.126;2024-02-04T06:10:11;101355.00;;;15.70
9119;BMP180;4594;50.994;7.126;2024-02-04T06:12:37;101340.00;;;15.70
9119;BMP180;4594;50.994;7.126;2024-02-04T06:15:12;101339.00;;;15.80
9119;BMP180;4594;50.994;7.126;2024-02-04T06:17:38;101352.00;;;15.80
9119;BMP180;4594;50.994;7.126;2024-02-04T06:20:04;101331.00;;;15.80
9119;BMP180;4594;50.994;7.126;2024-02-04T06:22:30;101325.00;;;15.80
9119;BMP180;4594;50.994;7.126;2024-02-04T06:24:56;101326.00;;;15.80
9119;BMP180;4594;50.994;7.126;2024-02-04T06:27:22;101333.00;;;15.80
9119;BMP180;4594;50.994;7.126;2024-02-04T06:29:47;101347.00;;;15.90
9119;BMP180;4594;50.994;7.126;2024-02-04T06:32:13;101351.00;;;15.90
9119;BMP180;4594;50.994;7.126;2024-02-04T06:34:39;101343.00;;;15.90
9119;BMP180;4594;50.994;7.126;2024-02-04T06:37:05;101337.00;;;15.90
9119;BMP180;4594;50.994;7.126;2024-02-04T06:39:30;101339.00;;;15.90
9119;BMP180;4594;50.994;7.126;2024-02-04T06:41:56;101331.00;;;15.90
9119;BMP180;4594;50.994;7.126;2024-02-04T06:44:21;101336.00;;;15.90
9119;BMP180;4594;50.994;7.126;2024-02-04T06:46:47;101338.00;;;15.90
9119;BMP180;4594;50.994;7.126;2024-02-04T06:49:13;101333.00;;;15.90
9119;BMP180;4594;50.994;7.126;2024-02-04T06:51:44;101319.00;;;16.00
9119;BMP180;4594;50.994;7.126;2024-02-04T06:54:10;101318.00;;;16.00
9119;BMP180;4594;50.994;7.126;2024-02-04T06:56:36;101321.00;;;16.00
9119;BMP180;4594;50.994;7.126;2024-02-04T06:59:02;101328.00;;;16.00
9119;BMP180;4594;50.994;7.126;2024-02-04T07:01:28;101336.00;;;16.00
9119;BMP180;4594;50.994;7.126;2024-02-04T07:03:54;101327.00;;;16.00
9119;BMP180;4594;50.994;7.126;2024-02-04T07:06:20;101333.00;;;16.00
9119;BMP180;4594;50.994;7.126;2024-02-04T07:08:45;101334.00;;;16.00
9119;BMP180;4594;50.994;7.126;2024-02-04T07:11:11;101329.00;;;16.00
9119;BMP180;4594;50.994;7.126;2024-02-04T07:13:36;101330.00;;;16.00
9119;BMP180;4594;50.994;7.126;2024-02-04T07:16:02;101327.00;;;16.00
9119;BMP180;4594;50.994;7.126;2024-02-04T07:18:28;101310.00;;;16.00
9119;BMP180;4594;50.994;7.126;2024-02-04T07:20:54;101310.00;;;16.00
9119;BMP180;4594;50.994;7.126;2024-02-04T07:23:19;101303.00;;;16.00
9119;BMP180;4594;50.994;7.126;2024-02-04T07:25:45;101306.00;;;16.00
9119;BMP180;4594;50.994;7.126;2024-02-04T07:28:11;101305.00;;;16.00
9119;BMP180;4594;50.994;7.126;2024-02-04T07:30:36;101317.00;;;16.00
9119;BMP180;4594;50.994;7.126;2024-02-04T07:33:02;101302.00;;;16.00
9119;BMP180;4594;50.994;7.126;2024-02-04T07:35:28;101303.00;;;16.10
9119;BMP180;4594;50.994;7.126;2024-02-04T07:37:54;101319.00;;;16.10
9119;BMP180;4594;50.994;7.126;2024-02-04T07:40:19;101313.00;;;16.10
9119;BMP180;4594;50.994;7.126;2024-02-04T07:42:45;101336.00;;;16.10
9119;BMP180;4594;50.994;7.126;2024-02-04T07:45:10;101320.00;;;16.10
9119;BMP180;4594;50.994;7.126;2024-02-04T07:47:36;101321.00;;;16.10
9119;BMP180;4594;50.994;7.126;2024-02-04T07:50:02;101307.00;;;16.10
9119;BMP180;4594;50.994;7.126;2024-02-04T07:52:28;101315.00;;;16.10
9119;BMP180;4594;50.994;7.126;2024-02-04T07:54:54;101321.00;;;16.10
9119;BMP180;4594;50.994;7.126;2024-02-04T07:57:19;101333.00;;;16.10
9119;BMP180;4594;50.994;7.126;2024-02-04T07:59:45;101327.00;;;16.10
9119;BMP180;4594;50.994;7.126;2024-02-04T08:02:11;101336.00;;;16.10
9119;BMP180;4594;50.994;7.126;2024-02-04T08:04:40;101333.00;;;16.10
9119;BMP180;4594;50.994;7.126;2024-02-04T08:07:06;101322.00;;;16.10
9119;BMP180;4594;50.994;7.126;2024-02-04T08:09:32;101313.00;;;16.10
9119;BMP180;4594;50.994;7.126;2024-02-04T08:11:58;101306.00;;;16.10
9119;BMP180;4594;50.994;7.126;2024-02-04T08:14:23;101305.00;;;16.10
9119;BMP180;4594;50.994;7.126;2024-02-04T08:16:49;101309.00;;;16.10
9119;BMP180;4594;50.994;7.126;2024-02-04T08:19:16;101322.00;;;16.10
9119;BMP180;4594;50.994;7.126;2024-02-04T08:21:42;101325.00;;;16.10
9119;BMP180;4594;50.994;7.126;2024-02-04T08:24:08;101308.00;;;16.10
9119;BMP180;4594;50.994;7.126;2024-02-04T08:26:34;101302.00;;;16.10
9119;BMP180;4594;50.994;7.126;2024-02-04T08:29:00;101319.00;;;16.10
9119;BMP180;4594;50.994;7.126;2024-02-04T08:31:26;101313.00;;;16.10
9119;BMP180;4594;50.994;7.126;2024-02-04T08:33:51;101325.00;;;16.10
9119;BMP180;4594;50.994;7.126;2024-02-04T08:36:18;101323.00;;;16.20
9119;BMP180;4594;50.994;7.126;2024-02-04T08:38:44;101330.00;;;16.20
9119;BMP180;4594;50.994;7.126;2024-02-04T08:41:10;101337.00;;;16.20
9119;BMP180;4594;50.994;7.126;2024-02-04T08:43:36;101342.00;;;16.20
9119;BMP180;4594;50.994;7.126;2024-02-04T08:46:01;101341.00;;;16.30
9119;BMP180;4594;50.994;7.126;2024-02-04T08:48:27;101332.00;;;16.30
9119;BMP180;4594;50.994;7.126;2024-02-04T08:50:53;101331.00;;;16.30
9119;BMP180;4594;50.994;7.126;2024-02-04T08:53:21;101320.00;;;16.30
9119;BMP180;4594;50.994;7.126;2024-02-04T08:55:49;101322.00;;;16.30
9119;BMP180;4594;50.994;7.126;2024-02-04T08:58:15;101332.00;;;16.40
9119;BMP180;4594;50.994;7.126;2024-02-04T09:00:40;101322.00;;;16.40
9119;BMP180;4594;50.994;7.126;2024-02-04T09:03:06;101322.00;;;16.40
9119;BMP180;4594;50.994;7.126;2024-02-04T09:05:31;101324.00;;;16.40
9119;BMP180;4594;50.994;7.126;2024-02-04T09:07:57;101318.00;;;16.50
9119;BMP180;4594;50.994;7.126;2024-02-04T09:10:23;101319.00;;;16.50
9119;BMP180;4594;50.994;7.126;2024-02-04T09:12:48;101328.00;;;16.50
9119;BMP180;4594;50.994;7.126;2024-02-04T09:15:14;101322.00;;;16.60
9119;BMP180;4594;50.994;7.126;2024-02-04T09:17:40;101329.00;;;16.60
9119;BMP180;4594;50.994;7.126;2024-02-04T09:20:07;101330.00;;;16.60
9119;BMP180;4594;50.994;7.126;2024-02-04T09:22:33;101317.00;;;16.60
9119;BMP180;4594;50.994;7.126;2024-02-04T09:24:59;101322.00;;;16.60
9119;BMP180;4594;50.994;7.126;2024-02-04T09:27:25;101325.00;;;16.60
9119;BMP180;4594;50.994;7.126;2024-02-04T09:29:51;101320.00;;;16.70
9119;BMP180;4594;50.994;7.126;2024-02-04T09:32:17;101324.00;;;16.60
9119;BMP180;4594;50.994;7.126;2024-02-04T09:34:43;101323.00;;;16.70
9119;BMP180;4594;50.994;7.126;2024-02-04T09:37:09;101339.00;;;16.70
9119;BMP180;4594;50.994;7.126;2024-02-04T09:39:34;101333.00;;;16.70
9119;BMP180;4594;50.994;7.126;2024-02-04T09:42:01;101344.00;;;16.70
9119;BMP180;4594;50.994;7.126;2024-02-04T09:44:27;101342.00;;;16.70
9119;BMP180;4594;50.994;7.126;2024-02-04T09:46:53;101342.00;;;16.60
9119;BMP180;4594;50.994;7.126;2024-02-04T09:49:20;101342.00;;;16.70
9119;BMP180;4594;50.994;7.126;2024-02-04T09:51:47;101336.00;;;16.60
9119;BMP180;4594;50.994;7.126;2024-02-04T09:54:16;101338.00;;;16.70
9119;BMP180;4594;50.994;7.126;2024-02-04T09:56:43;101342.00;;;16.70
9119;BMP180;4594;50.994;7.126;2024-02-04T09:59:09;101337.00;;;16.70
9119;BMP180;4594;50.994;7.126;2024-02-04T10:01:35;101334.00;;;16.70
9119;BMP180;4594;50.994;7.126;2024-02-04T10:04:01;101344.00;;;16.70
9119;BMP180;4594;50.994;7.126;2024-02-04T10:06:27;101332.00;;;16.80
9119;BMP180;4594;50.994;7.126;2024-02-04T10:08:53;101318.00;;;16.80
9119;BMP180;4594;50.994;7.126;2024-02-04T10:11:19;101325.00;;;16.80
9119;BMP180;4594;50.994;7.126;2024-02-04T10:13:47;101339.00;;;16.90
9119;BMP180;4594;50.994;7.126;2024-02-04T10:16:14;101339.00;;;16.90
9119;BMP180;4594;50.994;7.126;2024-02-04T10:18:47;101332.00;;;16.90
9119;BMP180;4594;50.994;7.126;2024-02-04T10:21:22;101335.00;;;16.90
9119;BMP180;4594;50.994;7.126;2024-02-04T10:23:50;101340.00;;;16.90
9119;BMP180;4594;50.994;7.126;2024-02-04T10:26:17;101329.00;;;17.00
9119;BMP180;4594;50.994;7.126;2024-02-04T10:28:46;101333.00;;;17.00
9119;BMP180;4594;50.994;7.126;2024-02-04T10:31:13;101328.00;;;17.10
9119;BMP180;4594;50.994;7.126;2024-02-04T10:33:39;101318.00;;;17.10
9119;BMP180;4594;50.994;7.126;2024-02-04T10:36:06;101327.00;;;17.10
9119;BMP180;4594;50.994;7.126;2024-02-04T10:38:32;101338.00;;;17.10
9119;BMP180;4594;50.994;7.126;2024-02-04T10:41:01;101336.00;;;17.10
9119;BMP180;4594;50.994;7.126;2024-02-04T10:43:32;101321.00;;;17.10
9119;BMP180;4594;50.994;7.126;2024-02-04T10:46:09;101332.00;;;17.10
9119;BMP180;4594;50.994;7.126;2024-02-04T10:48:37;101324.00;;;17.10
9119;BMP180;4594;50.994;7.126;2024-02-04T10:51:13;101331.00;;;17.10
9119;BMP180;4594;50.994;7.126;2024-02-04T10:53:43;101318.00;;;17.10
9119;BMP180;4594;50.994;7.126;2024-02-04T10:57:17;101322.00;;;17.10
9119;BMP180;4594;50.994;7.126;2024-02-04T10:59:23;101334.00;;;17.20
9119;BMP180;4594;50.994;7.126;2024-02-04T11:01:49;101324.00;;;17.20
9119;BMP180;4594;50.994;7.126;2024-02-04T11:04:17;101316.00;;;17.30
9119;BMP180;4594;50.994;7.126;2024-02-04T11:06:44;101313.00;;;17.30
9119;BMP180;4594;50.994;7.126;2024-02-04T11:09:13;101313.00;;;17.30
9119;BMP180;4594;50.994;7.126;2024-02-04T11:11:40;101311.00;;;17.30
9119;BMP180;4594;50.994;7.126;2024-02-04T11:14:12;101305.00;;;17.30
9119;BMP180;4594;50.994;7.126;2024-02-04T11:25:46;101300.00;;;17.30
9119;BMP180;4594;50.994;7.126;2024-02-04T11:28:16;101301.00;;;17.30
9119;BMP180;4594;50.994;7.126;2024-02-04T11:30:43;101303.00;;;17.30
9119;BMP180;4594;50.994;7.126;2024-02-04T11:33:12;101305.00;;;17.30
9119;BMP180;4594;50.994;7.126;2024-02-04T11:35:38;101293.00;;;17.20
9119;BMP180;4594;50.994;7.126;2024-02-04T11:38:04;101304.00;;;17.20
9119;BMP180;4594;50.994;7.126;2024-02-04T11:40:39;101291.00;;;17.10
9119;BMP180;4594;50.994;7.126;2024-02-04T11:43:10;101280.00;;;17.10
9119;BMP180;4594;50.994;7.126;2024-02-04T11:45:43;101281.00;;;17.00
9119;BMP180;4594;50.994;7.126;2024-02-04T11:48:10;101266.00;;;17.00
9119;BMP180;4594;50.994;7.126;2024-02-04T11:50:38;101285.00;;;17.00
9119;BMP180;4594;50.994;7.126;2024-02-04T11:53:09;101278.00;;;17.00
9119;BMP180;4594;50.994;7.126;2024-02-04T11:55:39;101274.00;;;17.00
9119;BMP180;4594;50.994;7.126;2024-02-04T11:58:06;101276.00;;;17.00
9119;BMP180;4594;50.994;7.126;2024-02-04T12:00:36;101271.00;;;17.00
9119;BMP180;4594;50.994;7.126;2024-02-04T12:03:05;101264.00;;;17.00
9119;BMP180;4594;50.994;7.126;2024-02-04T12:05:36;101275.00;;;17.00
9119;BMP180;4594;50.994;7.126;2024-02-04T12:08:04;101264.00;;;17.00
9119;BMP180;4594;50.994;7.126;2024-02-04T12:10:31;101256.00;;;17.00
9119;BMP180;4594;50.994;7.126;2024-02-04T12:12:59;101256.00;;;17.10
9119;BMP180;4594;50.994;7.126;2024-02-04T12:15:29;101251.00;;;17.10
9119;BMP180;4594;50.994;7.126;2024-02-04T12:18:04;101262.00;;;17.10
9119;BMP180;4594;50.994;7.126;2024-02-04T12:20:30;101247.00;;;17.10
9119;BMP180;4594;50.994;7.126;2024-02-04T12:22:56;101236.00;;;17.10
9119;BMP180;4594;50.994;7.126;2024-02-04T12:25:22;101247.00;;;17.10
9119;BMP180;4594;50.994;7.126;2024-02-04T12:27:51;101235.00;;;17.10
9119;BMP180;4594;50.994;7.126;2024-02-04T12:30:17;101248.00;;;17.00
9119;BMP180;4594;50.994;7.126;2024-02-04T12:32:43;101256.00;;;17.00
9119;BMP180;4594;50.994;7.126;2024-02-04T12:35:13;101252.00;;;17.00
9119;BMP180;4594;50.994;7.126;2024-02-04T12:37:53;101239.00;;;17.00
9119;BMP180;4594;50.994;7.126;2024-02-04T12:40:27;101242.00;;;17.00
9119;BMP180;4594;50.994;7.126;2024-02-04T12:43:01;101234.00;;;17.00
9119;BMP180;4594;50.994;7.126;2024-02-04T12:45:28;101241.00;;;17.00
9119;BMP180;4594;50.994;7.126;2024-02-04T12:47:58;101231.00;;;17.10
9119;BMP180;4594;50.994;7.126;2024-02-04T12:50:25;101225.00;;;17.00
9119;BMP180;4594;50.994;7.126;2024-02-04T12:53:08;101226.00;;;17.00
9119;BMP180;4594;50.994;7.126;2024-02-04T12:55:37;101235.00;;;16.90
9119;BMP180;4594;50.994;7.126;2024-02-04T12:58:09;101243.00;;;16.90
9119;BMP180;4594;50.994;7.126;2024-02-04T13:00:38;101231.00;;;16.90
9119;BMP180;4594;50.994;7.126;2024-02-04T13:03:05;101219.00;;;16.80
9119;BMP180;4594;50.994;7.126;2024-02-04T13:05:33;101222.00;;;16.80
9119;BMP180;4594;50.994;7.126;2024-02-04T13:08:01;101220.00;;;16.90
9119;BMP180;4594;50.994;7.126;2024-02-04T13:10:30;101216.00;;;16.80
9119;BMP180;4594;50.994;7.126;2024-02-04T13:13:03;101223.00;;;16.80
9119;BMP180;4594;50.994;7.126;2024-02-04T13:15:32;101223.00;;;16.80
9119;BMP180;4594;50.994;7.126;2024-02-04T13:17:58;101210.00;;;16.80
9119;BMP180;4594;50.994;7.126;2024-02-04T13:20:25;101208.00;;;16.70
9119;BMP180;4594;50.994;7.126;2024-02-04T13:22:51;101219.00;;;16.70
9119;BMP180;4594;50.994;7.126;2024-02-04T13:25:20;101220.00;;;16.70
9119;BMP180;4594;50.994;7.126;2024-02-04T13:27:48;101218.00;;;16.70
9119;BMP180;4594;50.994;7.126;2024-02-04T13:30:16;101210.00;;;16.60
9119;BMP180;4594;50.994;7.126;2024-02-04T13:32:42;101219.00;;;16.60
9119;BMP180;4594;50.994;7.126;2024-02-04T13:35:09;101210.00;;;16.60
9119;BMP180;4594;50.994;7.126;2024-02-04T13:37:44;101206.00;;;16.60
9119;BMP180;4594;50.994;7.126;2024-02-04T13:40:18;101207.00;;;16.50
9119;BMP180;4594;50.994;7.126;2024-02-04T13:42:44;101208.00;;;16.50
9119;BMP180;4594;50.994;7.126;2024-02-04T13:45:11;101221.00;;;16.50
9119;BMP180;4594;50.994;7.126;2024-02-04T13:47:41;101214.00;;;16.50
9119;BMP180;4594;50.994;7.126;2024-02-04T13:50:09;101218.00;;;16.50
9119;BMP180;4594;50.994;7.126;2024-02-04T13:52:35;101226.00;;;16.50
9119;BMP180;4594;50.994;7.126;2024-02-04T13:55:02;101225.00;;;16.50
9119;BMP180;4594;50.994;7.126;2024-02-04T13:57:30;101218.00;;;16.50
9119;BMP180;4594;50.994;7.126;2024-02-04T13:59:56;101231.00;;;16.60
9119;BMP180;4594;50.994;7.126;2024-02-04T14:02:22;101225.00;;;16.60
9119;BMP180;4594;50.994;7.126;2024-02-04T14:04:50;101227.00;;;16.60
9119;BMP180;4594;50.994;7.126;2024-02-04T14:07:15;101232.00;;;16.60
9119;BMP180;4594;50.994;7.126;2024-02-04T14:09:41;101220.00;;;16.60
9119;BMP180;4594;50.994;7.126;2024-02-04T14:12:07;101230.00;;;16.60
9119;BMP180;4594;50.994;7.126;2024-02-04T14:14:32;101226.00;;;16.60
9119;BMP180;4594;50.994;7.126;2024-02-04T14:16:58;101233.00;;;16.70
9119;BMP180;4594;50.994;7.126;2024-02-04T14:19:24;101233.00;;;16.70
9119;BMP180;4594;50.994;7.126;2024-02-04T14:21:49;101222.00;;;16.70
9119;BMP180;4594;50.994;7.126;2024-02-04T14:24:15;101224.00;;;16.70
9119;BMP180;4594;50.994;7.126;2024-02-04T14:26:40;101220.00;;;16.70
9119;BMP180;4594;50.994;7.126;2024-02-04T14:29:07;101224.00;;;16.80
9119;BMP180;4594;50.994;7.126;2024-02-04T14:31:33;101214.00;;;16.80
9119;BMP180;4594;50.994;7.126;2024-02-04T14:33:59;101205.00;;;16.70
9119;BMP180;4594;50.994;7.126;2024-02-04T14:36:24;101200.00;;;16.70